sensor_id;sensor_type;location;lat;lon;timestamp;P1;durP1;ratioP1;P2;durP2;ratioP2
51718;SDS011;37795;53.236;5.704;2023-01-09T00:00:41;5.90;;;2.90;;
51718;SDS011;37795;53.236;5.704;2023-01-09T00:03:07;5.50;;;2.63;;
51718;SDS011;37795;53.236;5.704;2023-01-09T00:05:33;5.40;;;3.03;;
51718;SDS011;37795;53.236;5.704;2023-01-09T00:07:59;8.20;;;3.23;;
51718;SDS011;37795;53.236;5.704;2023-01-09T00:10:25;4.40;;;3.27;;
51718;SDS011;37795;53.236;5.704;2023-01-09T00:12:50;6.30;;;2.47;;
51718;SDS011;37795;53.236;5.704;2023-01-09T00:15:16;4.10;;;3.23;;
51718;SDS011;37795;53.236;5.704;2023-01-09T00:17:42;7.63;;;3.17;;
51718;SDS011;37795;53.236;5.704;2023-01-09T00:20:08;7.53;;;3.10;;
51718;SDS011;37795;53.236;5.704;2023-01-09T00:22:35;7.82;;;3.17;;
51718;SDS011;37795;53.236;5.704;2023-01-09T00:25:01;8.40;;;3.58;;
51718;SDS011;37795;53.236;5.704;2023-01-09T00:27:31;6.33;;;2.57;;
51718;SDS011;37795;53.236;5.704;2023-01-09T00:29:58;5.43;;;2.92;;
51718;SDS011;37795;53.236;5.704;2023-01-09T00:32:25;7.30;;;3.10;;
51718;SDS011;37795;53.236;5.704;2023-01-09T00:34:51;9.25;;;3.50;;
51718;SDS011;37795;53.236;5.704;2023-01-09T00:37:18;3.92;;;2.78;;
51718;SDS011;37795;53.236;5.704;2023-01-09T00:39:43;9.53;;;3.77;;
51718;SDS011;37795;53.236;5.704;2023-01-09T00:42:10;10.20;;;2.90;;
51718;SDS011;37795;53.236;5.704;2023-01-09T00:44:47;3.17;;;2.88;;
51718;SDS011;37795;53.236;5.704;2023-01-09T00:47:18;5.70;;;3.20;;
51718;SDS011;37795;53.236;5.704;2023-01-09T00:49:50;6.40;;;2.85;;
51718;SDS011;37795;53.236;5.704;2023-01-09T00:52:16;6.95;;;2.90;;
51718;SDS011;37795;53.236;5.704;2023-01-09T00:54:43;10.35;;;3.95;;
51718;SDS011;37795;53.236;5.704;2023-01-09T00:57:10;9.13;;;2.97;;
51718;SDS011;37795;53.236;5.704;2023-01-09T00:59:37;15.07;;;3.05;;
51718;SDS011;37795;53.236;5.704;2023-01-09T01:02:04;4.45;;;3.15;;
51718;SDS011;37795;53.236;5.704;2023-01-09T01:04:29;7.20;;;2.90;;
51718;SDS011;37795;53.236;5.704;2023-01-09T01:07:13;5.00;;;2.70;;
51718;SDS011;37795;53.236;5.704;2023-01-09T01:09:58;7.93;;;3.08;;
51718;SDS011;37795;53.236;5.704;2023-01-09T01:12:23;20.57;;;3.80;;
51718;SDS011;37795;53.236;5.704;2023-01-09T01:14:50;7.63;;;2.90;;
51718;SDS011;37795;53.236;5.704;2023-01-09T01:17:16;7.38;;;2.97;;
51718;SDS011;37795;53.236;5.704;2023-01-09T01:19:43;15.93;;;3.77;;
51718;SDS011;37795;53.236;5.704;2023-01-09T01:22:08;6.33;;;3.17;;
51718;SDS011;37795;53.236;5.704;2023-01-09T01:24:34;13.40;;;3.10;;
51718;SDS011;37795;53.236;5.704;2023-01-09T01:27:00;6.07;;;3.13;;
51718;SDS011;37795;53.236;5.704;2023-01-09T01:29:25;12.90;;;3.03;;
51718;SDS011;37795;53.236;5.704;2023-01-09T01:31:51;5.33;;;2.67;;
51718;SDS011;37795;53.236;5.704;2023-01-09T01:34:17;6.63;;;2.77;;
51718;SDS011;37795;53.236;5.704;2023-01-09T01:36:43;11.23;;;3.23;;
51718;SDS011;37795;53.236;5.704;2023-01-09T01:39:08;6.57;;;3.00;;
51718;SDS011;37795;53.236;5.704;2023-01-09T01:41:34;11.90;;;3.80;;
51718;SDS011;37795;53.236;5.704;2023-01-09T01:46:29;12.55;;;2.80;;
51718;SDS011;37795;53.236;5.704;2023-01-09T01:51:27;9.90;;;2.65;;
51718;SDS011;37795;53.236;5.704;2023-01-09T01:53:58;7.43;;;2.63;;
51718;SDS011;37795;53.236;5.704;2023-01-09T01:56:36;9.57;;;2.92;;
51718;SDS011;37795;53.236;5.704;2023-01-09T02:04:13;5.47;;;3.47;;
51718;SDS011;37795;53.236;5.704;2023-01-09T02:06:38;16.43;;;4.23;;
51718;SDS011;37795;53.236;5.704;2023-01-09T02:09:06;13.65;;;3.88;;
51718;SDS011;37795;53.236;5.704;2023-01-09T02:11:32;9.40;;;2.83;;
51718;SDS011;37795;53.236;5.704;2023-01-09T02:13:58;6.17;;;2.80;;
51718;SDS011;37795;53.236;5.704;2023-01-09T02:27:53;17.33;;;3.97;;
51718;SDS011;37795;53.236;5.704;2023-01-09T02:30:45;10.13;;;2.95;;
51718;SDS011;37795;53.236;5.704;2023-01-09T02:36:48;9.18;;;2.50;;
51718;SDS011;37795;53.236;5.704;2023-01-09T02:44:17;10.40;;;3.00;;
51718;SDS011;37795;53.236;5.704;2023-01-09T02:47:49;6.60;;;3.22;;
51718;SDS011;37795;53.236;5.704;2023-01-09T02:49:52;9.55;;;3.53;;
51718;SDS011;37795;53.236;5.704;2023-01-09T03:04:08;18.73;;;3.25;;
51718;SDS011;37795;53.236;5.704;2023-01-09T03:09:21;13.68;;;3.53;;
51718;SDS011;37795;53.236;5.704;2023-01-09T03:11:52;9.10;;;3.28;;
51718;SDS011;37795;53.236;5.704;2023-01-09T03:14:24;8.07;;;3.30;;
51718;SDS011;37795;53.236;5.704;2023-01-09T03:16:52;8.85;;;3.08;;
51718;SDS011;37795;53.236;5.704;2023-01-09T03:19:22;12.52;;;3.15;;
51718;SDS011;37795;53.236;5.704;2023-01-09T03:21:52;6.53;;;2.88;;
51718;SDS011;37795;53.236;5.704;2023-01-09T03:24:20;11.15;;;3.15;;
51718;SDS011;37795;53.236;5.704;2023-01-09T03:26:46;8.67;;;3.93;;
51718;SDS011;37795;53.236;5.704;2023-01-09T03:29:11;8.37;;;3.77;;
51718;SDS011;37795;53.236;5.704;2023-01-09T03:31:37;6.93;;;3.27;;
51718;SDS011;37795;53.236;5.704;2023-01-09T03:34:03;16.47;;;3.70;;
51718;SDS011;37795;53.236;5.704;2023-01-09T03:36:29;8.57;;;2.67;;
51718;SDS011;37795;53.236;5.704;2023-01-09T03:38:54;4.83;;;2.50;;
51718;SDS011;37795;53.236;5.704;2023-01-09T03:41:20;5.20;;;2.87;;
51718;SDS011;37795;53.236;5.704;2023-01-09T03:43:46;5.33;;;2.70;;
51718;SDS011;37795;53.236;5.704;2023-01-09T03:46:13;8.75;;;3.25;;
51718;SDS011;37795;53.236;5.704;2023-01-09T03:51:05;12.55;;;3.65;;
51718;SDS011;37795;53.236;5.704;2023-01-09T03:53:30;6.77;;;3.20;;
51718;SDS011;37795;53.236;5.704;2023-01-09T03:55:56;11.07;;;4.03;;
51718;SDS011;37795;53.236;5.704;2023-01-09T03:58:23;8.48;;;3.72;;
51718;SDS011;37795;53.236;5.704;2023-01-09T04:00:49;14.63;;;4.78;;
51718;SDS011;37795;53.236;5.704;2023-01-09T04:03:19;5.95;;;3.70;;
51718;SDS011;37795;53.236;5.704;2023-01-09T04:05:46;9.57;;;3.22;;
51718;SDS011;37795;53.236;5.704;2023-01-09T04:08:13;7.35;;;4.03;;
51718;SDS011;37795;53.236;5.704;2023-01-09T04:10:39;9.47;;;3.53;;
51718;SDS011;37795;53.236;5.704;2023-01-09T04:13:07;7.00;;;5.20;;
51718;SDS011;37795;53.236;5.704;2023-01-09T04:15:33;13.53;;;5.30;;
51718;SDS011;37795;53.236;5.704;2023-01-09T04:17:59;9.63;;;5.83;;
51718;SDS011;37795;53.236;5.704;2023-01-09T04:20:24;6.53;;;5.43;;
51718;SDS011;37795;53.236;5.704;2023-01-09T04:22:50;10.93;;;5.60;;
51718;SDS011;37795;53.236;5.704;2023-01-09T04:25:16;14.37;;;6.73;;
51718;SDS011;37795;53.236;5.704;2023-01-09T04:27:41;9.37;;;7.17;;
51718;SDS011;37795;53.236;5.704;2023-01-09T04:30:07;8.83;;;7.13;;
51718;SDS011;37795;53.236;5.704;2023-01-09T04:32:33;17.02;;;8.52;;
51718;SDS011;37795;53.236;5.704;2023-01-09T04:34:59;13.83;;;9.00;;
51718;SDS011;37795;53.236;5.704;2023-01-09T04:37:25;12.10;;;7.47;;
51718;SDS011;37795;53.236;5.704;2023-01-09T04:39:50;17.40;;;8.80;;
51718;SDS011;37795;53.236;5.704;2023-01-09T04:42:19;11.07;;;8.15;;
51718;SDS011;37795;53.236;5.704;2023-01-09T04:44:45;8.90;;;7.97;;
51718;SDS011;37795;53.236;5.704;2023-01-09T04:47:11;14.93;;;7.47;;
51718;SDS011;37795;53.236;5.704;2023-01-09T04:49:37;10.00;;;7.18;;
51718;SDS011;37795;53.236;5.704;2023-01-09T04:52:04;11.43;;;8.05;;
51718;SDS011;37795;53.236;5.704;2023-01-09T04:54:29;16.70;;;7.43;;
51718;SDS011;37795;53.236;5.704;2023-01-09T04:56:55;11.13;;;7.63;;
51718;SDS011;37795;53.236;5.704;2023-01-09T04:59:21;11.33;;;7.97;;
51718;SDS011;37795;53.236;5.704;2023-01-09T05:01:47;8.97;;;7.63;;
51718;SDS011;37795;53.236;5.704;2023-01-09T05:04:12;13.47;;;8.43;;
51718;SDS011;37795;53.236;5.704;2023-01-09T05:06:38;9.73;;;7.90;;
51718;SDS011;37795;53.236;5.704;2023-01-09T05:09:04;10.13;;;8.53;;
51718;SDS011;37795;53.236;5.704;2023-01-09T05:11:29;17.30;;;9.50;;
51718;SDS011;37795;53.236;5.704;2023-01-09T05:13:55;15.50;;;9.93;;
51718;SDS011;37795;53.236;5.704;2023-01-09T05:16:21;14.73;;;9.07;;
51718;SDS011;37795;53.236;5.704;2023-01-09T05:18:47;12.90;;;8.67;;
51718;SDS011;37795;53.236;5.704;2023-01-09T05:21:13;12.43;;;9.57;;
51718;SDS011;37795;53.236;5.704;2023-01-09T05:23:39;15.40;;;10.20;;
51718;SDS011;37795;53.236;5.704;2023-01-09T05:26:04;16.33;;;10.27;;
51718;SDS011;37795;53.236;5.704;2023-01-09T05:28:31;16.37;;;9.87;;
51718;SDS011;37795;53.236;5.704;2023-01-09T05:30:57;18.92;;;10.45;;
51718;SDS011;37795;53.236;5.704;2023-01-09T05:33:23;12.37;;;9.27;;
51718;SDS011;37795;53.236;5.704;2023-01-09T05:35:49;15.53;;;9.23;;
51718;SDS011;37795;53.236;5.704;2023-01-09T05:38:14;16.97;;;8.83;;
51718;SDS011;37795;53.236;5.704;2023-01-09T05:40:40;13.10;;;9.77;;
51718;SDS011;37795;53.236;5.704;2023-01-09T05:43:06;10.23;;;8.40;;
51718;SDS011;37795;53.236;5.704;2023-01-09T05:45:32;13.73;;;9.20;;
51718;SDS011;37795;53.236;5.704;2023-01-09T05:47:58;13.77;;;9.93;;
51718;SDS011;37795;53.236;5.704;2023-01-09T05:50:23;19.23;;;10.50;;
51718;SDS011;37795;53.236;5.704;2023-01-09T05:52:49;12.10;;;10.30;;
51718;SDS011;37795;53.236;5.704;2023-01-09T05:55:15;13.40;;;9.60;;
51718;SDS011;37795;53.236;5.704;2023-01-09T05:57:41;15.95;;;11.75;;
51718;SDS011;37795;53.236;5.704;2023-01-09T06:00:06;16.73;;;11.87;;
51718;SDS011;37795;53.236;5.704;2023-01-09T06:02:33;19.52;;;13.00;;
51718;SDS011;37795;53.236;5.704;2023-01-09T06:04:58;16.33;;;12.67;;
51718;SDS011;37795;53.236;5.704;2023-01-09T06:07:24;18.47;;;12.20;;
51718;SDS011;37795;53.236;5.704;2023-01-09T06:09:50;19.37;;;11.77;;
51718;SDS011;37795;53.236;5.704;2023-01-09T06:12:16;19.37;;;14.30;;
51718;SDS011;37795;53.236;5.704;2023-01-09T06:14:41;14.90;;;12.77;;
51718;SDS011;37795;53.236;5.704;2023-01-09T06:17:07;19.70;;;13.37;;
51718;SDS011;37795;53.236;5.704;2023-01-09T06:19:33;17.63;;;13.87;;
51718;SDS011;37795;53.236;5.704;2023-01-09T06:21:58;19.97;;;14.07;;
51718;SDS011;37795;53.236;5.704;2023-01-09T06:24:25;16.10;;;12.33;;
51718;SDS011;37795;53.236;5.704;2023-01-09T06:26:50;13.27;;;11.45;;
51718;SDS011;37795;53.236;5.704;2023-01-09T06:29:16;16.10;;;12.07;;
51718;SDS011;37795;53.236;5.704;2023-01-09T06:31:42;13.23;;;10.97;;
51718;SDS011;37795;53.236;5.704;2023-01-09T06:34:07;13.23;;;11.83;;
51718;SDS011;37795;53.236;5.704;2023-01-09T06:36:33;15.80;;;11.53;;
51718;SDS011;37795;53.236;5.704;2023-01-09T06:38:59;16.60;;;10.83;;
51718;SDS011;37795;53.236;5.704;2023-01-09T06:41:25;15.53;;;10.40;;
51718;SDS011;37795;53.236;5.704;2023-01-09T06:43:51;27.93;;;12.03;;
51718;SDS011;37795;53.236;5.704;2023-01-09T06:46:16;15.20;;;10.80;;
51718;SDS011;37795;53.236;5.704;2023-01-09T06:48:42;12.70;;;10.60;;
51718;SDS011;37795;53.236;5.704;2023-01-09T06:58:25;14.80;;;12.38;;
51718;SDS011;37795;53.236;5.704;2023-01-09T07:00:51;13.73;;;12.33;;
51718;SDS011;37795;53.236;5.704;2023-01-09T07:03:17;15.25;;;13.68;;
51718;SDS011;37795;53.236;5.704;2023-01-09T07:05:45;18.85;;;14.70;;
51718;SDS011;37795;53.236;5.704;2023-01-09T07:08:11;17.15;;;14.45;;
51718;SDS011;37795;53.236;5.704;2023-01-09T07:10:38;15.75;;;13.85;;
51718;SDS011;37795;53.236;5.704;2023-01-09T07:13:05;22.95;;;14.85;;
51718;SDS011;37795;53.236;5.704;2023-01-09T07:15:30;15.10;;;13.57;;
51718;SDS011;37795;53.236;5.704;2023-01-09T07:17:56;14.27;;;12.67;;
51718;SDS011;37795;53.236;5.704;2023-01-09T07:20:22;19.33;;;14.80;;
51718;SDS011;37795;53.236;5.704;2023-01-09T07:22:47;18.40;;;12.33;;
51718;SDS011;37795;53.236;5.704;2023-01-09T07:25:13;14.60;;;13.10;;
51718;SDS011;37795;53.236;5.704;2023-01-09T07:27:39;16.93;;;12.67;;
51718;SDS011;37795;53.236;5.704;2023-01-09T07:30:05;17.73;;;14.07;;
51718;SDS011;37795;53.236;5.704;2023-01-09T07:34:57;15.95;;;12.93;;
51718;SDS011;37795;53.236;5.704;2023-01-09T07:37:23;18.10;;;13.57;;
51718;SDS011;37795;53.236;5.704;2023-01-09T07:39:49;18.90;;;14.13;;
51718;SDS011;37795;53.236;5.704;2023-01-09T07:42:15;14.53;;;12.57;;
51718;SDS011;37795;53.236;5.704;2023-01-09T07:44:41;12.67;;;11.37;;
51718;SDS011;37795;53.236;5.704;2023-01-09T07:47:06;16.47;;;12.93;;
51718;SDS011;37795;53.236;5.704;2023-01-09T07:49:32;13.20;;;11.70;;
51718;SDS011;37795;53.236;5.704;2023-01-09T07:51:58;19.40;;;13.30;;
51718;SDS011;37795;53.236;5.704;2023-01-09T07:54:24;18.20;;;13.80;;
51718;SDS011;37795;53.236;5.704;2023-01-09T07:56:50;14.50;;;12.63;;
51718;SDS011;37795;53.236;5.704;2023-01-09T07:59:15;17.23;;;12.87;;
51718;SDS011;37795;53.236;5.704;2023-01-09T08:01:41;13.67;;;12.03;;
51718;SDS011;37795;53.236;5.704;2023-01-09T08:04:07;14.33;;;12.73;;
51718;SDS011;37795;53.236;5.704;2023-01-09T08:06:32;15.83;;;11.33;;
51718;SDS011;37795;53.236;5.704;2023-01-09T08:08:58;16.57;;;11.77;;
51718;SDS011;37795;53.236;5.704;2023-01-09T08:11:24;15.00;;;11.97;;
51718;SDS011;37795;53.236;5.704;2023-01-09T08:13:50;19.20;;;13.70;;
51718;SDS011;37795;53.236;5.704;2023-01-09T08:16:16;14.95;;;13.25;;
51718;SDS011;37795;53.236;5.704;2023-01-09T08:18:41;21.73;;;12.43;;
51718;SDS011;37795;53.236;5.704;2023-01-09T08:21:08;17.13;;;13.73;;
51718;SDS011;37795;53.236;5.704;2023-01-09T08:23:35;22.02;;;13.30;;
51718;SDS011;37795;53.236;5.704;2023-01-09T08:26:01;14.98;;;12.27;;
51718;SDS011;37795;53.236;5.704;2023-01-09T08:28:28;18.10;;;11.60;;
51718;SDS011;37795;53.236;5.704;2023-01-09T08:30:53;16.97;;;10.30;;
51718;SDS011;37795;53.236;5.704;2023-01-09T08:33:19;16.30;;;11.07;;
51718;SDS011;37795;53.236;5.704;2023-01-09T08:35:45;12.67;;;10.20;;
51718;SDS011;37795;53.236;5.704;2023-01-09T08:38:11;11.17;;;9.90;;
51718;SDS011;37795;53.236;5.704;2023-01-09T08:40:36;17.97;;;10.03;;
51718;SDS011;37795;53.236;5.704;2023-01-09T08:43:02;10.20;;;9.07;;
51718;SDS011;37795;53.236;5.704;2023-01-09T08:45:46;11.25;;;8.32;;
51718;SDS011;37795;53.236;5.704;2023-01-09T08:48:30;13.70;;;8.50;;
51718;SDS011;37795;53.236;5.704;2023-01-09T08:50:56;13.80;;;8.83;;
51718;SDS011;37795;53.236;5.704;2023-01-09T08:53:22;12.27;;;9.07;;
51718;SDS011;37795;53.236;5.704;2023-01-09T08:55:47;9.20;;;7.83;;
51718;SDS011;37795;53.236;5.704;2023-01-09T08:58:13;9.63;;;7.47;;
51718;SDS011;37795;53.236;5.704;2023-01-09T09:00:39;11.20;;;6.87;;
51718;SDS011;37795;53.236;5.704;2023-01-09T09:03:05;10.70;;;8.93;;
51718;SDS011;37795;53.236;5.704;2023-01-09T09:05:31;14.23;;;10.47;;
51718;SDS011;37795;53.236;5.704;2023-01-09T09:07:57;13.02;;;9.40;;
51718;SDS011;37795;53.236;5.704;2023-01-09T09:10:27;10.60;;;9.35;;
51718;SDS011;37795;53.236;5.704;2023-01-09T09:12:54;11.68;;;8.55;;
51718;SDS011;37795;53.236;5.704;2023-01-09T09:15:22;10.32;;;8.73;;
51718;SDS011;37795;53.236;5.704;2023-01-09T09:20:20;10.63;;;8.20;;
51718;SDS011;37795;53.236;5.704;2023-01-09T09:22:47;10.63;;;7.95;;
51718;SDS011;37795;53.236;5.704;2023-01-09T09:25:13;11.40;;;8.07;;
51718;SDS011;37795;53.236;5.704;2023-01-09T09:27:40;8.52;;;6.72;;
51718;SDS011;37795;53.236;5.704;2023-01-09T09:30:06;8.20;;;7.40;;
51718;SDS011;37795;53.236;5.704;2023-01-09T09:34:58;8.15;;;7.30;;
51718;SDS011;37795;53.236;5.704;2023-01-09T09:37:24;8.40;;;7.20;;
51718;SDS011;37795;53.236;5.704;2023-01-09T09:39:50;8.33;;;7.20;;
51718;SDS011;37795;53.236;5.704;2023-01-09T09:50:55;12.23;;;7.05;;
51718;SDS011;37795;53.236;5.704;2023-01-09T09:55:58;10.05;;;6.97;;
51718;SDS011;37795;53.236;5.704;2023-01-09T09:58:29;11.43;;;7.53;;
51718;SDS011;37795;53.236;5.704;2023-01-09T10:01:04;11.07;;;7.88;;
51718;SDS011;37795;53.236;5.704;2023-01-09T10:06:33;9.02;;;6.88;;
51718;SDS011;37795;53.236;5.704;2023-01-09T10:09:16;11.68;;;6.43;;
51718;SDS011;37795;53.236;5.704;2023-01-09T10:14:41;9.85;;;5.65;;
51718;SDS011;37795;53.236;5.704;2023-01-09T10:25:26;15.90;;;7.60;;
51718;SDS011;37795;53.236;5.704;2023-01-09T10:31:00;14.30;;;8.00;;
51718;SDS011;37795;53.236;5.704;2023-01-09T10:36:41;10.52;;;7.03;;
51718;SDS011;37795;53.236;5.704;2023-01-09T10:42:40;10.43;;;6.60;;
51718;SDS011;37795;53.236;5.704;2023-01-09T10:47:40;11.48;;;6.82;;
51718;SDS011;37795;53.236;5.704;2023-01-09T10:58:25;11.77;;;8.65;;
51718;SDS011;37795;53.236;5.704;2023-01-09T11:00:51;8.00;;;7.07;;
51718;SDS011;37795;53.236;5.704;2023-01-09T11:03:18;9.77;;;8.67;;
51718;SDS011;37795;53.236;5.704;2023-01-09T11:05:48;15.75;;;8.02;;
51718;SDS011;37795;53.236;5.704;2023-01-09T11:11:06;10.10;;;8.27;;
51718;SDS011;37795;53.236;5.704;2023-01-09T11:13:33;13.18;;;10.05;;
51718;SDS011;37795;53.236;5.704;2023-01-09T11:18:47;8.35;;;7.35;;
51718;SDS011;37795;53.236;5.704;2023-01-09T11:30:03;11.75;;;9.15;;
51718;SDS011;37795;53.236;5.704;2023-01-09T11:32:29;19.67;;;11.05;;
51718;SDS011;37795;53.236;5.704;2023-01-09T11:37:23;10.82;;;9.15;;
51718;SDS011;37795;53.236;5.704;2023-01-09T11:39:52;12.35;;;9.45;;
51718;SDS011;37795;53.236;5.704;2023-01-09T11:42:28;14.02;;;9.98;;
51718;SDS011;37795;53.236;5.704;2023-01-09T11:45:18;15.68;;;10.80;;
51718;SDS011;37795;53.236;5.704;2023-01-09T11:47:46;11.77;;;9.00;;
51718;SDS011;37795;53.236;5.704;2023-01-09T11:50:19;13.83;;;10.63;;
51718;SDS011;37795;53.236;5.704;2023-01-09T11:55:41;15.02;;;11.18;;
51718;SDS011;37795;53.236;5.704;2023-01-09T11:58:15;11.65;;;10.05;;
51718;SDS011;37795;53.236;5.704;2023-01-09T12:09:22;18.67;;;10.80;;
51718;SDS011;37795;53.236;5.704;2023-01-09T12:17:53;12.05;;;10.23;;
51718;SDS011;37795;53.236;5.704;2023-01-09T12:25:55;14.13;;;9.90;;
51718;SDS011;37795;53.236;5.704;2023-01-09T12:36:21;11.60;;;7.90;;
51718;SDS011;37795;53.236;5.704;2023-01-09T12:39:13;9.93;;;6.03;;
51718;SDS011;37795;53.236;5.704;2023-01-09T12:44:32;15.37;;;6.47;;
51718;SDS011;37795;53.236;5.704;2023-01-09T12:47:12;12.20;;;6.57;;
51718;SDS011;37795;53.236;5.704;2023-01-09T12:49:51;18.55;;;5.72;;
51718;SDS011;37795;53.236;5.704;2023-01-09T12:52:40;12.98;;;6.28;;
51718;SDS011;37795;53.236;5.704;2023-01-09T12:55:21;17.63;;;5.35;;
51718;SDS011;37795;53.236;5.704;2023-01-09T12:57:53;12.77;;;5.70;;
51718;SDS011;37795;53.236;5.704;2023-01-09T13:00:23;11.48;;;4.32;;
51718;SDS011;37795;53.236;5.704;2023-01-09T13:05:52;15.15;;;4.57;;
51718;SDS011;37795;53.236;5.704;2023-01-09T13:08:25;17.23;;;4.85;;
51718;SDS011;37795;53.236;5.704;2023-01-09T13:11:05;22.95;;;4.82;;
51718;SDS011;37795;53.236;5.704;2023-01-09T13:13:50;13.93;;;4.18;;
51718;SDS011;37795;53.236;5.704;2023-01-09T13:16:36;8.02;;;4.45;;
51718;SDS011;37795;53.236;5.704;2023-01-09T13:19:24;13.25;;;4.00;;
51718;SDS011;37795;53.236;5.704;2023-01-09T13:22:01;11.73;;;3.88;;
51718;SDS011;37795;53.236;5.704;2023-01-09T13:24:32;15.43;;;4.63;;
51718;SDS011;37795;53.236;5.704;2023-01-09T13:29:46;13.38;;;5.20;;
51718;SDS011;37795;53.236;5.704;2023-01-09T13:32:29;13.60;;;4.05;;
51718;SDS011;37795;53.236;5.704;2023-01-09T13:34:58;14.57;;;5.65;;
51718;SDS011;37795;53.236;5.704;2023-01-09T13:43:00;15.70;;;5.35;;
51718;SDS011;37795;53.236;5.704;2023-01-09T13:45:27;13.82;;;5.53;;
51718;SDS011;37795;53.236;5.704;2023-01-09T13:48:37;13.23;;;5.03;;
51718;SDS011;37795;53.236;5.704;2023-01-09T13:50:50;16.83;;;4.30;;
51718;SDS011;37795;53.236;5.704;2023-01-09T13:56:16;13.57;;;4.80;;
51718;SDS011;37795;53.236;5.704;2023-01-09T13:58:56;9.52;;;4.60;;
51718;SDS011;37795;53.236;5.704;2023-01-09T14:04:49;19.13;;;5.00;;
51718;SDS011;37795;53.236;5.704;2023-01-09T14:09:47;14.88;;;4.78;;
51718;SDS011;37795;53.236;5.704;2023-01-09T14:12:19;24.50;;;5.70;;
51718;SDS011;37795;53.236;5.704;2023-01-09T14:17:16;16.17;;;5.47;;
51718;SDS011;37795;53.236;5.704;2023-01-09T14:19:52;14.23;;;6.10;;
51718;SDS011;37795;53.236;5.704;2023-01-09T14:22:28;12.50;;;4.45;;
51718;SDS011;37795;53.236;5.704;2023-01-09T14:25:06;19.75;;;5.70;;
51718;SDS011;37795;53.236;5.704;2023-01-09T14:30:32;17.45;;;5.55;;
51718;SDS011;37795;53.236;5.704;2023-01-09T14:33:02;13.70;;;5.63;;
51718;SDS011;37795;53.236;5.704;2023-01-09T14:38:48;10.48;;;4.53;;
51718;SDS011;37795;53.236;5.704;2023-01-09T14:41:19;20.98;;;6.78;;
51718;SDS011;37795;53.236;5.704;2023-01-09T14:50:00;16.08;;;5.25;;
51718;SDS011;37795;53.236;5.704;2023-01-09T14:55:23;16.02;;;5.63;;
51718;SDS011;37795;53.236;5.704;2023-01-09T14:57:54;17.77;;;5.15;;
51718;SDS011;37795;53.236;5.704;2023-01-09T15:00:21;18.92;;;5.85;;
51718;SDS011;37795;53.236;5.704;2023-01-09T15:02:48;12.70;;;5.25;;
51718;SDS011;37795;53.236;5.704;2023-01-09T15:05:17;16.80;;;5.90;;
51718;SDS011;37795;53.236;5.704;2023-01-09T15:07:55;15.25;;;6.28;;
51718;SDS011;37795;53.236;5.704;2023-01-09T15:10:25;18.92;;;5.78;;
51718;SDS011;37795;53.236;5.704;2023-01-09T15:12:54;26.58;;;6.60;;
51718;SDS011;37795;53.236;5.704;2023-01-09T15:15:23;19.52;;;5.63;;
51718;SDS011;37795;53.236;5.704;2023-01-09T15:17:54;14.13;;;5.25;;
51718;SDS011;37795;53.236;5.704;2023-01-09T15:20:22;9.93;;;5.10;;
51718;SDS011;37795;53.236;5.704;2023-01-09T15:22:51;22.77;;;6.00;;
51718;SDS011;37795;53.236;5.704;2023-01-09T15:25:30;22.73;;;6.05;;
51718;SDS011;37795;53.236;5.704;2023-01-09T15:28:11;21.60;;;7.53;;
51718;SDS011;37795;53.236;5.704;2023-01-09T15:31:16;25.88;;;7.72;;
51718;SDS011;37795;53.236;5.704;2023-01-09T15:33:42;15.95;;;5.20;;
51718;SDS011;37795;53.236;5.704;2023-01-09T15:36:20;21.65;;;7.10;;
51718;SDS011;37795;53.236;5.704;2023-01-09T15:38:48;20.83;;;6.68;;
51718;SDS011;37795;53.236;5.704;2023-01-09T15:41:16;32.72;;;7.05;;
51718;SDS011;37795;53.236;5.704;2023-01-09T15:44:13;21.20;;;6.13;;
51718;SDS011;37795;53.236;5.704;2023-01-09T15:46:43;22.02;;;5.78;;
51718;SDS011;37795;53.236;5.704;2023-01-09T15:49:11;20.67;;;6.22;;
51718;SDS011;37795;53.236;5.704;2023-01-09T15:51:38;18.70;;;5.32;;
51718;SDS011;37795;53.236;5.704;2023-01-09T15:54:11;24.30;;;7.10;;
51718;SDS011;37795;53.236;5.704;2023-01-09T15:56:39;33.53;;;6.30;;
51718;SDS011;37795;53.236;5.704;2023-01-09T15:59:20;18.25;;;6.53;;
51718;SDS011;37795;53.236;5.704;2023-01-09T16:01:53;18.40;;;5.78;;
51718;SDS011;37795;53.236;5.704;2023-01-09T16:04:46;18.50;;;6.82;;
51718;SDS011;37795;53.236;5.704;2023-01-09T16:07:17;22.95;;;5.85;;
51718;SDS011;37795;53.236;5.704;2023-01-09T16:09:45;14.25;;;6.68;;
51718;SDS011;37795;53.236;5.704;2023-01-09T16:12:16;17.38;;;5.82;;
51718;SDS011;37795;53.236;5.704;2023-01-09T16:14:51;21.40;;;6.15;;
51718;SDS011;37795;53.236;5.704;2023-01-09T16:17:20;24.80;;;7.18;;
51718;SDS011;37795;53.236;5.704;2023-01-09T16:22:27;25.63;;;6.47;;
51718;SDS011;37795;53.236;5.704;2023-01-09T16:25:42;18.27;;;6.50;;
51718;SDS011;37795;53.236;5.704;2023-01-09T16:27:45;22.23;;;6.95;;
51718;SDS011;37795;53.236;5.704;2023-01-09T16:33:28;17.52;;;7.13;;
51718;SDS011;37795;53.236;5.704;2023-01-09T16:35:54;26.65;;;5.65;;
51718;SDS011;37795;53.236;5.704;2023-01-09T16:38:22;12.32;;;5.43;;
51718;SDS011;37795;53.236;5.704;2023-01-09T16:41:05;20.80;;;5.60;;
51718;SDS011;37795;53.236;5.704;2023-01-09T16:43:55;18.40;;;6.35;;
51718;SDS011;37795;53.236;5.704;2023-01-09T16:46:21;20.57;;;5.87;;
51718;SDS011;37795;53.236;5.704;2023-01-09T16:48:47;20.67;;;5.53;;
51718;SDS011;37795;53.236;5.704;2023-01-09T16:51:20;18.67;;;6.87;;
51718;SDS011;37795;53.236;5.704;2023-01-09T16:53:47;16.35;;;5.22;;
51718;SDS011;37795;53.236;5.704;2023-01-09T16:56:13;18.90;;;6.18;;
51718;SDS011;37795;53.236;5.704;2023-01-09T16:58:47;11.52;;;6.07;;
51718;SDS011;37795;53.236;5.704;2023-01-09T17:01:14;14.68;;;5.03;;
51718;SDS011;37795;53.236;5.704;2023-01-09T17:03:40;17.23;;;5.90;;
51718;SDS011;37795;53.236;5.704;2023-01-09T17:06:08;21.73;;;5.40;;
51718;SDS011;37795;53.236;5.704;2023-01-09T17:08:39;27.13;;;5.90;;
51718;SDS011;37795;53.236;5.704;2023-01-09T17:11:05;19.63;;;5.87;;
51718;SDS011;37795;53.236;5.704;2023-01-09T17:13:36;11.93;;;4.30;;
51718;SDS011;37795;53.236;5.704;2023-01-09T17:16:01;16.93;;;5.20;;
51718;SDS011;37795;53.236;5.704;2023-01-09T17:20:54;24.20;;;6.47;;
51718;SDS011;37795;53.236;5.704;2023-01-09T17:23:22;19.80;;;5.95;;
51718;SDS011;37795;53.236;5.704;2023-01-09T17:25:53;17.80;;;6.45;;
51718;SDS011;37795;53.236;5.704;2023-01-09T17:28:50;11.02;;;5.15;;
51718;SDS011;37795;53.236;5.704;2023-01-09T17:31:16;14.73;;;6.18;;
51718;SDS011;37795;53.236;5.704;2023-01-09T17:33:42;13.35;;;5.55;;
51718;SDS011;37795;53.236;5.704;2023-01-09T17:36:27;16.70;;;5.70;;
51718;SDS011;37795;53.236;5.704;2023-01-09T17:38:56;18.38;;;6.65;;
51718;SDS011;37795;53.236;5.704;2023-01-09T17:41:31;16.13;;;5.57;;
51718;SDS011;37795;53.236;5.704;2023-01-09T17:43:57;11.98;;;5.07;;
51718;SDS011;37795;53.236;5.704;2023-01-09T17:48:56;16.98;;;5.47;;
51718;SDS011;37795;53.236;5.704;2023-01-09T17:51:23;16.98;;;6.03;;
51718;SDS011;37795;53.236;5.704;2023-01-09T17:53:49;27.00;;;5.87;;
51718;SDS011;37795;53.236;5.704;2023-01-09T17:56:15;20.93;;;6.23;;
51718;SDS011;37795;53.236;5.704;2023-01-09T17:58:44;21.05;;;6.75;;
51718;SDS011;37795;53.236;5.704;2023-01-09T18:03:38;11.80;;;5.45;;
51718;SDS011;37795;53.236;5.704;2023-01-09T18:06:04;14.13;;;5.38;;
51718;SDS011;37795;53.236;5.704;2023-01-09T18:08:31;17.15;;;5.75;;
51718;SDS011;37795;53.236;5.704;2023-01-09T18:11:00;14.43;;;5.93;;
51718;SDS011;37795;53.236;5.704;2023-01-09T18:13:27;15.50;;;5.78;;
51718;SDS011;37795;53.236;5.704;2023-01-09T18:15:52;17.63;;;5.87;;